Current Conditions
Partly Cloudy
Conditions



Pressure
1030.92 (mb) - 30.44 (inHG)
Visibility

0.3 (miles) - 0.5 (km)
Temperature
2  °C
Temperature
2  °C
Dewpoint
100  %
 Humidity
Wind Speed
9  mph
8  kts
14  km/h
4.0  m/s
Wind Direction
N
45°
E
90°
135°
S
180°
225°
W
270°
315°
 160°

South South
East
Airport Data
EGYM
RAF Marham
Metar :EGYM 182250Z AUTO 16008KT 0500 FEW001/// 02/02 Q1031
Tue 18th January 22:50 pm
Raw Metar Info
Raw METAR is the most common format in the world for the transmission of observational weather data. It is highly standardized through the International Civil Aviation Organization (ICAO), which allows it to be understood throughout most of the world.
API Info
Data Provided by
https://www.checkwx.com/weather/EGYM

Aviation Weather providing METAR, TAF, AIRMET, SIGMET and OUTLOOK Weather Reports
© Info
CSS/SVG/PHP scripts were developed by weather34 for use in the weather34 template © 2015-2022

Guide Info provided by Metar-Wikipedia